Time;durP1;ratioP1;P1;durP2;ratioP2;P2;SDS_P1;SDS_P2;PMS_P1;PMS_P2;Temp;Humidity;BMP_temperature;BMP_pressure;BME280_temperature;BME280_humidity;BME280_pressure;Samples;Min_cycle;Max_cycle;Signal;HPM_P1;HPM_P2
2023/03/14 00:01:56;;;;;;;1.60;1.10;;;11.30;98.20;;;;;;5038798;28;20501;-73
2023/03/14 00:04:23;;;;;;;1.53;1.10;;;11.30;98.20;;;;;;5049344;28;20458;-73
2023/03/14 00:06:50;;;;;;;1.50;1.10;;;11.30;98.20;;;;;;5038621;28;20486;-73
2023/03/14 00:09:17;;;;;;;1.53;1.10;;;11.30;98.20;;;;;;5049759;28;20458;-73
2023/03/14 00:11:44;;;;;;;1.60;1.20;;;11.30;98.20;;;;;;5039146;28;20521;-74
2023/03/14 00:14:12;;;;;;;1.53;1.10;;;11.30;98.20;;;;;;5041768;28;21029;-72
2023/03/14 00:16:39;;;;;;;1.57;1.10;;;11.30;98.20;;;;;;5039188;28;20489;-73
2023/03/14 00:19:06;;;;;;;1.60;1.10;;;11.30;98.20;;;;;;5048898;28;20463;-73
2023/03/14 00:21:33;;;;;;;1.57;1.10;;;11.30;98.20;;;;;;5039494;28;20501;-73
2023/03/14 00:23:59;;;;;;;1.60;1.20;;;11.30;98.20;;;;;;5048308;28;20466;-73
2023/03/14 00:26:26;;;;;;;1.57;1.10;;;11.30;98.20;;;;;;5039259;28;20474;-73
2023/03/14 00:28:54;;;;;;;1.60;1.10;;;11.30;98.20;;;;;;5047696;28;20497;-73
2023/03/14 00:31:22;;;;;;;1.57;1.10;;;11.30;98.20;;;;;;5038976;28;20493;-73
2023/03/14 00:33:49;;;;;;;1.60;1.20;;;11.30;98.20;;;;;;5047871;28;20493;-72
2023/03/14 00:36:17;;;;;;;1.50;1.10;;;11.30;98.20;;;;;;5041736;28;20469;-72
2023/03/14 00:38:45;;;;;;;1.60;1.10;;;11.40;98.20;;;;;;5051242;28;20557;-73
2023/03/14 00:41:14;;;;;;;1.57;1.10;;;11.40;98.20;;;;;;5039564;28;20515;-72
2023/03/14 00:43:41;;;;;;;1.57;1.10;;;11.40;98.20;;;;;;5048236;28;20454;-73
2023/03/14 00:46:08;;;;;;;1.60;1.17;;;11.40;98.20;;;;;;5038828;28;20575;-74
2023/03/14 00:48:37;;;;;;;1.60;1.20;;;11.40;98.20;;;;;;5047882;28;20497;-76
2023/03/14 00:51:04;;;;;;;1.60;1.10;;;11.40;98.20;;;;;;5047398;28;20490;-77
2023/03/14 00:53:31;;;;;;;1.60;1.10;;;11.20;98.20;;;;;;5050738;28;20523;-77
2023/03/14 00:56:02;;;;;;;1.57;1.10;;;11.10;98.20;;;;;;5033827;28;20464;-77
2023/03/14 00:58:29;;;;;;;1.57;1.10;;;10.90;98.20;;;;;;5049828;28;20470;-77
2023/03/14 01:00:56;;;;;;;1.53;1.10;;;10.70;98.20;;;;;;5038513;28;20466;-76
2023/03/14 01:03:23;;;;;;;1.50;1.10;;;10.60;98.20;;;;;;5047657;28;20470;-75
2023/03/14 01:05:51;;;;;;;1.60;1.20;;;10.50;98.20;;;;;;5038714;28;21019;-76
2023/03/14 01:08:18;;;;;;;1.53;1.10;;;10.40;98.20;;;;;;5048111;28;20470;-76
2023/03/14 01:10:45;;;;;;;1.60;1.20;;;10.30;98.20;;;;;;5048886;28;20462;-76
2023/03/14 01:13:12;;;;;;;1.50;1.10;;;10.30;98.20;;;;;;5025998;28;20855;-76
2023/03/14 01:15:39;;;;;;;1.50;1.00;;;10.20;98.20;;;;;;5046144;28;20458;-75
2023/03/14 01:18:06;;;;;;;1.60;1.20;;;10.20;98.20;;;;;;5030702;28;20627;-75
2023/03/14 01:20:33;;;;;;;1.60;1.20;;;10.20;98.20;;;;;;5049376;28;20457;-75
2023/03/14 01:23:01;;;;;;;1.60;1.30;;;10.20;98.20;;;;;;5042651;28;21026;-75
2023/03/14 01:25:27;;;;;;;1.60;1.20;;;10.20;98.20;;;;;;5049183;28;20455;-75
2023/03/14 01:27:54;;;;;;;1.50;1.10;;;10.20;98.20;;;;;;5038266;28;20526;-75
2023/03/14 01:30:21;;;;;;;1.60;1.10;;;10.20;98.20;;;;;;5043358;28;20466;-75
2023/03/14 01:32:48;;;;;;;1.57;1.13;;;10.20;98.20;;;;;;5032281;28;20482;-74
2023/03/14 01:35:14;;;;;;;1.60;1.10;;;10.10;98.20;;;;;;5048539;28;20470;-74
2023/03/14 01:37:41;;;;;;;1.60;1.10;;;10.10;98.20;;;;;;5042711;28;20486;-75
2023/03/14 01:40:13;;;;;;;1.60;1.10;;;10.10;98.20;;;;;;5046942;28;20470;-74
2023/03/14 01:42:46;;;;;;;1.57;1.10;;;10.10;98.20;;;;;;5042870;28;20988;-75
2023/03/14 01:45:46;;;;;;;1.53;1.10;;;10.10;98.20;;;;;;5040818;28;20454;-74
2023/03/14 01:48:13;;;;;;;1.60;1.20;;;10.10;98.20;;;;;;5019078;28;20948;-74
2023/03/14 01:50:39;;;;;;;1.60;1.10;;;10.10;98.20;;;;;;5047736;28;20457;-74
2023/03/14 01:53:06;;;;;;;1.60;1.20;;;10.00;98.20;;;;;;5041349;28;20538;-74
2023/03/14 01:55:34;;;;;;;1.57;1.20;;;10.10;98.20;;;;;;5048089;28;20473;-74
2023/03/14 01:58:05;;;;;;;1.60;1.20;;;10.10;98.20;;;;;;5041629;28;20951;-74
2023/03/14 02:00:32;;;;;;;1.60;1.10;;;10.10;98.20;;;;;;5048419;28;20486;-74
2023/03/14 02:03:02;;;;;;;1.60;1.20;;;10.10;98.20;;;;;;5040740;28;20915;-75
2023/03/14 02:05:33;;;;;;;1.60;1.13;;;10.00;98.20;;;;;;5048129;28;20863;-74
2023/03/14 02:08:01;;;;;;;1.57;1.20;;;10.00;98.20;;;;;;5042447;28;21108;-74
2023/03/14 02:10:30;;;;;;;1.60;1.10;;;10.00;98.20;;;;;;5033705;28;20466;-74
2023/03/14 02:13:02;;;;;;;1.60;1.17;;;10.00;98.20;;;;;;5040406;28;20497;-74
2023/03/14 02:15:29;;;;;;;1.60;1.10;;;10.00;98.20;;;;;;5048107;28;20464;-74
2023/03/14 02:17:57;;;;;;;1.57;1.13;;;10.00;98.20;;;;;;5041820;28;20482;-75
2023/03/14 02:20:31;;;;;;;1.60;1.20;;;10.00;98.20;;;;;;5048006;28;20471;-74
2023/03/14 02:22:59;;;;;;;1.60;1.37;;;10.00;98.20;;;;;;5040809;28;20485;-74
2023/03/14 02:25:34;;;;;;;1.53;1.10;;;10.00;98.20;;;;;;5047127;28;20458;-74
2023/03/14 02:28:02;;;;;;;1.60;1.20;;;10.00;98.20;;;;;;5041544;28;20490;-75
2023/03/14 02:30:31;;;;;;;1.57;1.10;;;10.00;98.20;;;;;;5047842;28;20466;-74
2023/03/14 02:33:02;;;;;;;1.57;1.20;;;9.90;98.20;;;;;;5041204;28;20486;-75
2023/03/14 02:35:33;;;;;;;1.60;1.20;;;9.90;98.20;;;;;;5047171;28;20462;-75
2023/03/14 02:38:05;;;;;;;1.60;1.20;;;9.90;98.20;;;;;;5036277;28;21554;-74
2023/03/14 02:40:31;;;;;;;1.60;1.20;;;9.90;98.20;;;;;;5047681;28;20497;-75
2023/03/14 02:42:58;;;;;;;1.60;1.10;;;10.00;98.20;;;;;;5040876;28;20483;-75
2023/03/14 02:45:36;;;;;;;1.60;1.20;;;10.00;98.20;;;;;;5047587;28;20458;-74
2023/03/14 02:48:07;;;;;;;1.57;1.20;;;10.00;98.20;;;;;;5035979;28;20493;-74
2023/03/14 02:50:35;;;;;;;1.57;1.20;;;10.00;98.20;;;;;;5047724;28;20856;-74
2023/03/14 02:53:02;;;;;;;1.57;1.10;;;10.00;98.20;;;;;;5039319;28;20490;-74
2023/03/14 02:55:29;;;;;;;1.60;1.20;;;10.00;98.20;;;;;;5047406;28;20469;-74
2023/03/14 02:57:56;;;;;;;1.57;1.10;;;10.10;98.20;;;;;;5035753;28;20498;-74
2023/03/14 03:00:22;;;;;;;1.53;1.10;;;10.10;98.20;;;;;;5046916;28;20462;-74
2023/03/14 03:02:50;;;;;;;1.50;1.10;;;10.10;98.20;;;;;;5040033;28;20490;-75
2023/03/14 03:05:17;;;;;;;1.60;1.20;;;10.10;98.20;;;;;;5046766;28;20870;-74
2023/03/14 03:07:44;;;;;;;1.53;1.10;;;10.10;98.20;;;;;;5041029;28;21049;-74
2023/03/14 03:10:12;;;;;;;1.53;1.10;;;10.10;98.20;;;;;;5047468;28;20466;-74
2023/03/14 03:12:38;;;;;;;1.53;1.10;;;10.10;98.20;;;;;;5042167;28;20868;-74
2023/03/14 03:15:06;;;;;;;1.60;1.20;;;10.10;98.20;;;;;;5045605;28;20483;-74
2023/03/14 03:17:33;;;;;;;1.57;1.10;;;10.10;98.20;;;;;;5041367;28;20605;-74
2023/03/14 03:20:01;;;;;;;1.60;1.10;;;10.10;98.20;;;;;;5046352;28;20458;-74
2023/03/14 03:22:28;;;;;;;1.57;1.10;;;10.10;98.20;;;;;;5042295;28;20485;-74
2023/03/14 03:24:55;;;;;;;1.57;1.10;;;10.10;98.20;;;;;;5046184;28;20492;-75
2023/03/14 03:27:21;;;;;;;1.60;1.20;;;10.10;98.20;;;;;;5042128;28;21026;-74
2023/03/14 03:29:48;;;;;;;1.60;1.20;;;10.10;98.20;;;;;;5046789;28;20462;-75
2023/03/14 03:32:15;;;;;;;1.57;1.17;;;10.10;98.20;;;;;;5041597;28;20553;-75
2023/03/14 03:34:42;;;;;;;1.60;1.20;;;10.10;98.20;;;;;;5047123;28;20846;-76
2023/03/14 03:37:10;;;;;;;1.57;1.10;;;10.10;98.20;;;;;;5032572;28;21545;-77
2023/03/14 03:39:36;;;;;;;1.50;1.10;;;10.10;98.20;;;;;;5046449;28;20865;-77
2023/03/14 03:42:04;;;;;;;1.53;1.10;;;10.10;98.20;;;;;;5042017;28;20515;-77
2023/03/14 03:44:30;;;;;;;1.60;1.20;;;10.10;98.20;;;;;;5045579;28;20459;-76
2023/03/14 03:46:57;;;;;;;1.60;1.20;;;10.10;98.20;;;;;;5041453;28;20492;-76
2023/03/14 03:49:24;;;;;;;1.57;1.20;;;10.10;98.20;;;;;;5046597;28;20458;-76
2023/03/14 03:51:51;;;;;;;1.60;1.20;;;10.10;98.20;;;;;;5041552;28;20485;-77
2023/03/14 03:54:20;;;;;;;1.57;1.20;;;10.10;98.20;;;;;;5045552;28;20478;-76
2023/03/14 03:56:46;;;;;;;1.53;1.20;;;10.00;98.20;;;;;;5041207;28;20484;-75
2023/03/14 03:59:13;;;;;;;1.60;1.27;;;10.00;98.20;;;;;;5045777;28;20462;-74
2023/03/14 04:01:40;;;;;;;1.60;1.20;;;10.00;98.20;;;;;;5042279;28;20488;-74
2023/03/14 04:04:07;;;;;;;1.60;1.10;;;10.00;98.20;;;;;;5046194;28;20454;-74
2023/03/14 04:06:34;;;;;;;1.57;1.10;;;10.00;98.20;;;;;;5044640;28;20481;-75
2023/03/14 04:09:01;;;;;;;1.50;1.10;;;10.00;98.20;;;;;;5048128;28;21002;-75
2023/03/14 04:11:29;;;;;;;1.60;1.20;;;10.00;98.20;;;;;;5040432;28;20485;-75
2023/03/14 04:13:55;;;;;;;1.53;1.10;;;10.00;98.20;;;;;;5044718;28;20858;-74
2023/03/14 04:16:24;;;;;;;1.53;1.10;;;10.00;98.20;;;;;;5047585;28;20480;-75
2023/03/14 04:18:51;;;;;;;1.57;1.10;;;9.90;98.20;;;;;;5049739;28;20462;-75
2023/03/14 04:21:18;;;;;;;1.60;1.20;;;9.90;98.20;;;;;;5046049;28;20492;-74
2023/03/14 04:23:45;;;;;;;1.60;1.10;;;9.80;98.20;;;;;;5052978;28;20473;-74
2023/03/14 04:26:12;;;;;;;1.57;1.10;;;9.80;98.20;;;;;;5038874;28;20562;-74
2023/03/14 04:28:40;;;;;;;1.60;1.20;;;9.80;98.20;;;;;;5049118;28;20474;-73
2023/03/14 04:31:10;;;;;;;1.57;1.10;;;9.80;98.20;;;;;;5041147;28;20484;-74
2023/03/14 04:33:37;;;;;;;1.57;1.10;;;9.80;98.20;;;;;;5051927;28;20463;-75
2023/03/14 04:36:05;;;;;;;1.60;1.20;;;9.80;98.20;;;;;;5039509;28;20478;-75
2023/03/14 04:38:32;;;;;;;1.57;1.10;;;9.80;98.20;;;;;;5049035;28;20462;-74
2023/03/14 04:41:00;;;;;;;1.60;1.20;;;9.80;98.20;;;;;;5038730;28;20473;-74
2023/03/14 04:43:27;;;;;;;1.60;1.10;;;9.80;98.20;;;;;;5045318;28;20520;-74
2023/03/14 04:45:57;;;;;;;1.60;1.10;;;9.90;98.20;;;;;;5035702;28;20835;-74
2023/03/14 04:48:23;;;;;;;1.60;1.20;;;9.90;98.20;;;;;;5041148;28;20467;-74
2023/03/14 04:50:51;;;;;;;1.60;1.20;;;9.90;98.20;;;;;;5034691;28;20465;-74
2023/03/14 04:53:18;;;;;;;1.53;1.10;;;9.90;98.20;;;;;;5052395;28;21050;-74
2023/03/14 04:55:49;;;;;;;1.60;1.10;;;9.90;98.20;;;;;;5048860;28;20489;-74
2023/03/14 04:58:15;;;;;;;1.60;1.20;;;9.90;98.20;;;;;;5032339;28;21001;-74
2023/03/14 05:00:42;;;;;;;1.60;1.10;;;9.90;98.20;;;;;;5045051;28;20465;-74
2023/03/14 05:03:10;;;;;;;1.53;1.13;;;9.90;98.20;;;;;;5037844;28;20484;-74
2023/03/14 05:05:37;;;;;;;1.60;1.20;;;9.90;98.20;;;;;;5044292;28;20454;-75
2023/03/14 05:08:04;;;;;;;1.60;1.20;;;9.90;98.20;;;;;;5037314;28;20540;-74
2023/03/14 05:10:31;;;;;;;1.60;1.10;;;9.90;98.20;;;;;;5051510;28;20463;-74
2023/03/14 05:12:57;;;;;;;1.60;1.20;;;10.00;98.20;;;;;;5038487;28;20490;-74
2023/03/14 05:15:24;;;;;;;1.60;1.20;;;9.90;98.20;;;;;;5045745;28;20500;-74
2023/03/14 05:17:52;;;;;;;1.50;1.10;;;10.00;98.20;;;;;;5033133;28;20513;-73
2023/03/14 05:20:20;;;;;;;1.60;1.10;;;10.00;98.20;;;;;;5053491;28;20493;-73
2023/03/14 05:22:46;;;;;;;1.60;1.30;;;10.00;98.20;;;;;;5034576;28;20494;-75
2023/03/14 05:25:13;;;;;;;1.50;1.10;;;10.00;98.20;;;;;;5046532;28;20458;-74
2023/03/14 05:27:40;;;;;;;1.57;1.10;;;10.00;98.20;;;;;;5034183;28;20484;-75
2023/03/14 05:30:10;;;;;;;1.57;1.00;;;10.00;98.20;;;;;;5050026;28;20841;-75
2023/03/14 05:32:37;;;;;;;1.57;1.10;;;10.00;98.20;;;;;;5034380;28;20486;-74
2023/03/14 05:35:04;;;;;;;1.60;1.20;;;10.00;98.20;;;;;;5043002;28;21020;-74
2023/03/14 05:37:32;;;;;;;1.57;1.17;;;10.00;98.20;;;;;;5040402;28;20513;-73
2023/03/14 05:39:59;;;;;;;1.60;1.20;;;10.00;98.20;;;;;;5047265;28;20956;-73
2023/03/14 05:42:26;;;;;;;1.60;1.20;;;10.10;98.20;;;;;;5036216;28;20482;-73
2023/03/14 05:44:53;;;;;;;1.53;1.20;;;10.10;98.20;;;;;;5050114;28;20831;-73
2023/03/14 05:47:19;;;;;;;1.57;1.20;;;10.10;98.20;;;;;;5033305;28;20490;-73
2023/03/14 05:49:46;;;;;;;1.57;1.10;;;10.10;98.20;;;;;;5044958;28;20463;-73
2023/03/14 05:52:13;;;;;;;1.60;1.20;;;10.10;98.20;;;;;;5043416;28;20486;-76
2023/03/14 05:54:41;;;;;;;1.57;1.20;;;10.10;98.20;;;;;;5045671;28;20486;-74
2023/03/14 05:57:08;;;;;;;1.60;1.13;;;10.10;98.20;;;;;;5034513;28;20946;-75
2023/03/14 05:59:34;;;;;;;1.53;1.10;;;10.10;98.20;;;;;;5048753;28;20462;-74
2023/03/14 06:02:01;;;;;;;1.53;1.20;;;10.10;98.20;;;;;;5036156;28;20495;-73
2023/03/14 06:04:28;;;;;;;1.53;1.10;;;10.10;98.20;;;;;;5045671;28;20565;-74
2023/03/14 06:06:55;;;;;;;1.57;1.20;;;10.20;98.20;;;;;;5031866;28;21050;-75
2023/03/14 06:09:23;;;;;;;1.60;1.30;;;10.20;98.20;;;;;;5044322;28;20466;-75
2023/03/14 06:11:51;;;;;;;1.57;1.13;;;10.20;98.20;;;;;;5034192;28;20573;-75
2023/03/14 06:14:18;;;;;;;1.57;1.10;;;10.20;98.20;;;;;;5044673;28;20937;-74
2023/03/14 06:16:45;;;;;;;1.50;1.10;;;10.20;98.20;;;;;;5033681;28;20512;-75
2023/03/14 06:19:12;;;;;;;1.50;1.10;;;10.20;98.20;;;;;;5043732;28;20469;-74
2023/03/14 06:21:39;;;;;;;1.57;1.10;;;10.20;98.20;;;;;;5045328;28;21052;-75
2023/03/14 06:24:06;;;;;;;1.60;1.10;;;10.20;98.20;;;;;;5043110;28;20582;-74
2023/03/14 06:26:33;;;;;;;1.57;1.10;;;10.20;98.20;;;;;;5038947;28;20483;-74
2023/03/14 06:29:03;;;;;;;1.60;1.20;;;10.20;98.20;;;;;;5042844;28;20493;-74
2023/03/14 06:31:30;;;;;;;1.57;1.20;;;10.20;98.20;;;;;;5038695;28;20529;-77
2023/03/14 06:33:57;;;;;;;1.57;1.10;;;10.20;98.20;;;;;;5045037;28;20582;-74
2023/03/14 06:36:24;;;;;;;1.53;1.10;;;10.20;98.20;;;;;;5034887;28;20477;-74
2023/03/14 06:38:51;;;;;;;1.57;1.17;;;10.30;98.20;;;;;;5041384;28;20473;-74
2023/03/14 06:41:18;;;;;;;1.57;1.10;;;10.30;98.20;;;;;;5040412;28;20493;-76
2023/03/14 06:43:44;;;;;;;1.53;1.10;;;10.30;98.20;;;;;;5044447;28;20625;-75
2023/03/14 06:46:12;;;;;;;1.60;1.20;;;10.40;98.20;;;;;;5035269;28;21919;-75
2023/03/14 06:48:40;;;;;;;1.57;1.10;;;10.40;98.20;;;;;;5040875;28;20458;-72
2023/03/14 06:51:07;;;;;;;1.57;1.03;;;10.40;98.20;;;;;;5033246;28;20510;-75
2023/03/14 06:53:34;;;;;;;1.57;1.10;;;10.50;98.20;;;;;;5046076;28;20462;-74
2023/03/14 06:56:01;;;;;;;1.60;1.20;;;10.50;98.20;;;;;;5035226;28;20528;-75
2023/03/14 06:58:27;;;;;;;1.60;1.10;;;10.60;98.20;;;;;;5046045;22;20510;-76
2023/03/14 07:00:54;;;;;;;1.57;1.20;;;10.60;98.20;;;;;;5012499;28;20459;-76
2023/03/14 07:03:22;;;;;;;1.60;1.27;;;10.60;98.20;;;;;;5028728;28;20956;-76
2023/03/14 07:05:49;;;;;;;1.50;1.10;;;10.70;98.20;;;;;;5013111;28;20466;-77
2023/03/14 07:08:16;;;;;;;1.57;1.10;;;10.70;98.20;;;;;;5030264;28;20478;-76
2023/03/14 07:10:43;;;;;;;1.60;1.13;;;10.70;98.20;;;;;;5043743;28;20457;-77
2023/03/14 07:13:10;;;;;;;1.60;1.10;;;10.70;98.20;;;;;;5039603;28;21009;-75
2023/03/14 07:15:37;;;;;;;1.60;1.20;;;10.80;98.20;;;;;;5047038;28;20876;-77
2023/03/14 07:18:04;;;;;;;1.60;1.10;;;10.80;98.20;;;;;;5039226;28;20486;-76
2023/03/14 07:20:33;;;;;;;1.60;1.20;;;10.90;98.20;;;;;;5046434;28;20486;-76
2023/03/14 07:23:02;;;;;;;1.60;1.10;;;10.90;98.20;;;;;;5040470;28;21084;-76
2023/03/14 07:25:29;;;;;;;1.53;1.10;;;10.90;98.20;;;;;;5046847;28;20454;-77
2023/03/14 07:27:56;;;;;;;1.53;1.10;;;11.00;98.20;;;;;;5039236;28;20490;-76
2023/03/14 07:30:23;;;;;;;1.50;1.00;;;11.10;98.20;;;;;;5046245;28;20565;-77
2023/03/14 07:32:49;;;;;;;1.60;1.10;;;11.10;98.20;;;;;;5036263;28;20876;-75
2023/03/14 07:35:16;;;;;;;1.60;1.13;;;11.20;98.20;;;;;;5041287;28;20485;-76
2023/03/14 07:37:44;;;;;;;1.60;1.17;;;11.20;98.20;;;;;;5035711;28;20488;-75
2023/03/14 07:40:14;;;;;;;1.60;1.10;;;11.30;98.20;;;;;;5041792;28;20465;-76
2023/03/14 07:42:42;;;;;;;1.57;1.10;;;11.30;98.20;;;;;;5041149;28;20501;-77
2023/03/14 07:45:10;;;;;;;1.60;1.10;;;11.30;98.20;;;;;;5050331;28;20473;-76
2023/03/14 07:47:37;;;;;;;1.57;1.10;;;11.30;98.20;;;;;;5029873;28;20486;-76
2023/03/14 07:50:04;;;;;;;1.53;1.10;;;11.30;98.20;;;;;;5049549;28;21358;-78
2023/03/14 07:52:31;;;;;;;1.57;1.10;;;11.30;98.20;;;;;;5043902;28;20493;-76
2023/03/14 07:54:59;;;;;;;1.60;1.10;;;11.30;98.20;;;;;;5048200;28;20492;-78
2023/03/14 07:57:26;;;;;;;1.60;1.10;;;11.30;98.20;;;;;;5030525;28;20501;-77
2023/03/14 07:59:52;;;;;;;1.60;1.10;;;11.30;98.20;;;;;;5048452;28;20468;-76
2023/03/14 08:02:22;;;;;;;1.57;1.00;;;11.40;98.20;;;;;;5031354;28;20616;-75
2023/03/14 08:04:49;;;;;;;1.60;1.10;;;11.50;98.20;;;;;;5048473;28;20881;-76
2023/03/14 08:07:15;;;;;;;1.60;1.10;;;11.50;98.20;;;;;;5042676;28;21010;-76
2023/03/14 08:09:42;;;;;;;1.57;1.00;;;11.60;98.20;;;;;;5049245;28;20466;-77
2023/03/14 08:12:11;;;;;;;1.57;1.10;;;11.70;98.20;;;;;;5037167;28;20474;-77
2023/03/14 08:14:37;;;;;;;1.57;1.10;;;11.80;98.20;;;;;;5056999;28;20461;-75
2023/03/14 08:17:07;;;;;;;1.53;1.10;;;11.80;98.20;;;;;;5043576;28;20490;-76
2023/03/14 08:19:35;;;;;;;1.53;1.10;;;11.90;98.20;;;;;;5049207;28;20454;-76
2023/03/14 08:22:02;;;;;;;1.60;1.10;;;11.90;98.20;;;;;;5033981;28;20513;-77
2023/03/14 08:24:29;;;;;;;1.60;1.10;;;11.90;98.20;;;;;;5058481;28;20490;-77
2023/03/14 08:26:57;;;;;;;1.60;1.20;;;11.90;98.20;;;;;;5042827;28;20488;-75
2023/03/14 08:29:25;;;;;;;1.60;1.30;;;11.90;98.20;;;;;;5048651;28;20465;-76
2023/03/14 08:31:52;;;;;;;1.60;1.10;;;11.90;98.20;;;;;;5044489;28;20485;-76
2023/03/14 08:34:20;;;;;;;1.60;1.10;;;11.90;98.20;;;;;;5048240;28;20481;-75
2023/03/14 08:36:47;;;;;;;1.60;1.10;;;11.80;98.20;;;;;;5038060;28;20835;-77
2023/03/14 08:39:14;;;;;;;1.60;1.10;;;11.80;98.20;;;;;;5047903;28;21010;-73
2023/03/14 08:41:42;;;;;;;1.53;1.10;;;11.90;98.20;;;;;;5044371;28;20721;-75
2023/03/14 08:44:11;;;;;;;1.60;1.10;;;11.90;98.20;;;;;;5039183;28;20454;-76
2023/03/14 08:46:39;;;;;;;1.60;1.10;;;11.90;98.20;;;;;;5027603;28;20483;-75
2023/03/14 08:49:06;;;;;;;1.53;1.00;;;11.90;98.20;;;;;;5046194;28;20474;-75
2023/03/14 08:51:32;;;;;;;1.60;1.13;;;12.00;98.20;;;;;;5042408;28;20496;-74
2023/03/14 08:53:59;;;;;;;1.53;1.10;;;12.00;98.20;;;;;;5048036;28;20462;-75
2023/03/14 08:56:26;;;;;;;1.57;1.03;;;12.00;98.20;;;;;;5041584;28;20496;-74
2023/03/14 08:58:53;;;;;;;1.53;1.10;;;12.00;98.20;;;;;;5049800;28;20493;-75
2023/03/14 09:01:21;;;;;;;1.60;1.10;;;11.90;98.20;;;;;;5041649;28;20496;-75
2023/03/14 09:03:49;;;;;;;1.53;1.00;;;11.90;98.20;;;;;;5049819;28;20893;-75
2023/03/14 09:06:17;;;;;;;1.50;1.00;;;11.90;98.20;;;;;;5039519;28;20955;-75
2023/03/14 09:08:44;;;;;;;1.57;1.00;;;11.90;98.20;;;;;;5041358;28;20516;-77
2023/03/14 09:11:11;;;;;;;1.60;1.10;;;11.90;98.20;;;;;;5040833;28;20564;-75
2023/03/14 09:13:38;;;;;;;1.60;1.10;;;11.80;98.20;;;;;;5052116;28;20465;-75
2023/03/14 09:16:06;;;;;;;1.53;1.03;;;11.80;98.20;;;;;;5038137;28;20493;-75
2023/03/14 09:18:33;;;;;;;1.53;1.07;;;11.80;98.20;;;;;;5051824;28;20510;-75
2023/03/14 09:21:01;;;;;;;1.57;1.00;;;11.80;98.20;;;;;;5038364;28;20462;-75
2023/03/14 09:23:28;;;;;;;1.53;1.10;;;11.80;98.20;;;;;;5054748;28;20469;-74
2023/03/14 09:25:56;;;;;;;1.60;1.10;;;11.70;98.20;;;;;;5037803;28;20467;-75
2023/03/14 09:28:22;;;;;;;1.53;1.10;;;11.50;98.20;;;;;;5052726;28;20486;-75
2023/03/14 09:30:50;;;;;;;1.60;1.10;;;11.30;98.20;;;;;;5036232;28;20459;-75
2023/03/14 09:33:17;;;;;;;1.53;1.10;;;11.10;98.20;;;;;;5053990;28;20525;-75
2023/03/14 09:35:43;;;;;;;1.60;1.07;;;10.90;98.20;;;;;;5047956;28;20912;-77
2023/03/14 09:38:12;;;;;;;1.60;1.10;;;10.80;98.20;;;;;;5040936;28;20489;-75
2023/03/14 09:40:39;;;;;;;1.60;1.10;;;10.60;98.20;;;;;;5047033;28;20490;-75
2023/03/14 09:43:06;;;;;;;1.57;1.10;;;10.50;98.20;;;;;;5043009;28;20489;-74
2023/03/14 09:45:36;;;;;;;1.60;1.10;;;10.40;98.20;;;;;;5048215;28;20462;-75
2023/03/14 09:48:04;;;;;;;1.57;1.10;;;10.30;98.20;;;;;;5040232;28;20485;-74
2023/03/14 09:50:40;;;;;;;1.60;1.10;;;10.10;98.20;;;;;;5048507;28;20966;-75
2023/03/14 09:53:15;;;;;;;1.60;1.13;;;10.10;98.20;;;;;;5042721;28;20489;-74
2023/03/14 09:55:43;;;;;;;1.60;1.10;;;10.10;98.20;;;;;;5047575;28;20485;-74
2023/03/14 09:58:14;;;;;;;1.57;1.10;;;10.10;98.20;;;;;;5040706;28;20482;-74
2023/03/14 10:00:40;;;;;;;1.50;1.00;;;10.10;98.20;;;;;;5048144;28;20943;-74
2023/03/14 10:03:24;;;;;;;1.60;1.20;;;10.00;98.20;;;;;;5042510;28;20474;-75
2023/03/14 10:05:51;;;;;;;1.60;1.10;;;10.00;98.20;;;;;;5035118;28;21069;-74
2023/03/14 10:08:19;;;;;;;1.77;1.67;;;10.10;98.20;;;;;;5060363;28;20478;-75
2023/03/14 10:10:46;;;;;;;1.57;1.17;;;10.00;98.20;;;;;;5045249;28;20486;-77
2023/03/14 10:13:18;;;;;;;1.60;1.23;;;9.90;98.20;;;;;;5019888;28;20478;-74
2023/03/14 10:15:52;;;;;;;1.57;1.10;;;9.80;98.20;;;;;;5047221;28;20494;-74
2023/03/14 10:18:19;;;;;;;1.57;1.10;;;9.70;98.20;;;;;;5025075;28;21021;-73
2023/03/14 10:20:47;;;;;;;1.60;1.10;;;9.60;98.20;;;;;;5047794;28;20479;-73
2023/03/14 10:23:25;;;;;;;1.60;1.13;;;9.50;98.20;;;;;;5019525;28;20497;-74
2023/03/14 10:26:10;;;;;;;1.60;1.10;;;9.40;98.20;;;;;;5036978;28;20473;-76
2023/03/14 10:28:40;;;;;;;1.60;1.20;;;9.40;98.20;;;;;;5042006;28;21022;-73
2023/03/14 10:31:07;;;;;;;1.60;1.13;;;9.40;98.20;;;;;;5038087;28;20460;-73
2023/03/14 10:33:36;;;;;;;1.60;1.17;;;9.40;98.20;;;;;;5051177;28;20835;-76
2023/03/14 10:36:06;;;;;;;1.60;1.20;;;9.40;98.20;;;;;;5037229;28;20518;-74
2023/03/14 10:38:36;;;;;;;1.60;1.20;;;9.40;98.20;;;;;;5059359;28;20501;-74
2023/03/14 10:41:15;;;;;;;1.60;1.27;;;9.50;98.20;;;;;;5035609;28;20462;-74
2023/03/14 10:43:42;;;;;;;1.57;1.10;;;9.50;98.20;;;;;;5042722;28;20458;-72
2023/03/14 10:46:13;;;;;;;1.60;1.20;;;9.50;98.20;;;;;;5034928;28;20484;-76
2023/03/14 10:48:41;;;;;;;1.60;1.10;;;9.50;98.20;;;;;;5041842;28;20924;-76
2023/03/14 10:51:11;;;;;;;1.60;1.10;;;9.50;98.20;;;;;;5035176;28;20464;-76
2023/03/14 10:53:45;;;;;;;1.60;1.10;;;9.50;98.20;;;;;;5047165;28;21062;-75
2023/03/14 10:56:13;;;;;;;1.57;1.10;;;9.60;98.20;;;;;;5028115;28;20473;-75
2023/03/14 10:58:42;;;;;;;1.53;1.10;;;9.60;98.20;;;;;;5044005;28;20486;-76
2023/03/14 11:01:37;;;;;;;1.60;1.20;;;9.70;98.20;;;;;;5033365;28;20483;-76
2023/03/14 11:04:13;;;;;;;1.60;1.20;;;9.80;98.20;;;;;;5042380;28;20474;-74
2023/03/14 11:06:45;;;;;;;1.60;1.10;;;9.90;98.20;;;;;;5041096;28;20484;-75
2023/03/14 11:09:21;;;;;;;1.50;1.10;;;9.90;98.20;;;;;;5037950;28;20479;-75
2023/03/14 11:11:48;;;;;;;1.60;1.20;;;10.00;98.20;;;;;;5040973;28;20482;-74
2023/03/14 11:14:29;;;;;;;1.60;1.20;;;10.00;98.20;;;;;;5047302;28;20503;-77
2023/03/14 11:17:01;;;;;;;1.57;1.10;;;10.00;98.20;;;;;;5041151;28;20887;-78
2023/03/14 11:19:42;;;;;;;1.60;1.20;;;9.80;98.20;;;;;;5046905;28;20462;-74
2023/03/14 11:22:19;;;;;;;1.57;1.10;;;9.60;98.20;;;;;;5034659;28;20480;-73
2023/03/14 11:25:10;;;;;;;1.60;1.20;;;9.40;98.20;;;;;;5043179;28;20486;-74
2023/03/14 11:27:43;;;;;;;1.57;1.13;;;9.20;98.20;;;;;;5040635;28;20490;-74
2023/03/14 11:30:20;;;;;;;1.57;1.20;;;9.10;98.20;;;;;;5038699;28;21006;-76
2023/03/14 11:32:51;;;;;;;1.60;1.20;;;8.90;98.20;;;;;;5040453;28;20501;-75
2023/03/14 11:35:24;;;;;;;1.60;1.30;;;8.90;98.20;;;;;;5046491;28;20491;-74
2023/03/14 11:37:55;;;;;;;1.60;1.20;;;8.80;98.20;;;;;;5039920;28;20959;-74
2023/03/14 11:40:27;;;;;;;1.60;1.10;;;8.80;98.20;;;;;;5045767;28;20753;-75
2023/03/14 11:43:01;;;;;;;1.60;1.20;;;8.90;98.20;;;;;;5040677;28;20478;-76
2023/03/14 11:45:34;;;;;;;1.60;1.20;;;8.80;98.20;;;;;;5047058;28;20458;-74
2023/03/14 11:48:15;;;;;;;1.60;1.20;;;8.80;98.20;;;;;;5038855;28;20548;-77
2023/03/14 11:50:44;;;;;;;1.60;1.30;;;8.70;98.20;;;;;;5046813;28;20526;-74
2023/03/14 11:53:16;;;;;;;1.60;1.20;;;8.60;98.20;;;;;;5041356;28;20486;-77
2023/03/14 11:55:45;;;;;;;1.60;1.20;;;8.50;98.20;;;;;;5047001;28;20845;-75
2023/03/14 11:58:18;;;;;;;1.60;1.30;;;8.30;98.20;;;;;;5017377;28;20497;-76
2023/03/14 12:00:46;;;;;;;1.60;1.30;;;8.20;98.20;;;;;;5046534;28;20454;-78
2023/03/14 12:03:20;;;;;;;1.60;1.20;;;8.20;98.20;;;;;;5010971;28;20482;-78
2023/03/14 12:05:58;;;;;;;1.60;1.20;;;8.10;98.20;;;;;;5040292;28;20821;-78
2023/03/14 12:08:42;;;;;;;1.60;1.20;;;8.20;98.20;;;;;;5039236;28;20478;-76
2023/03/14 12:11:16;;;;;;;1.60;1.20;;;8.20;98.20;;;;;;5026751;28;20781;-77
2023/03/14 12:13:48;;;;;;;1.60;1.13;;;8.30;98.20;;;;;;5045461;28;20469;-77
2023/03/14 12:16:31;;;;;;;1.60;1.20;;;8.30;98.20;;;;;;5034409;28;20498;-76
2023/03/14 12:19:14;;;;;;;1.60;1.20;;;8.40;98.20;;;;;;5044913;28;20956;-77
2023/03/14 12:21:51;;;;;;;1.60;1.20;;;8.50;98.20;;;;;;5035740;28;20486;-75
2023/03/14 12:24:21;;;;;;;1.60;1.20;;;8.60;98.20;;;;;;5033734;28;20462;-77
2023/03/14 12:26:57;;;;;;;1.60;1.20;;;8.60;98.20;;;;;;5034468;28;20585;-77
2023/03/14 12:29:25;;;;;;;1.60;1.20;;;8.60;98.20;;;;;;5039107;28;20462;-80
2023/03/14 12:32:07;;;;;;;1.57;1.10;;;8.60;98.20;;;;;;5039799;28;20488;-77
2023/03/14 12:34:35;;;;;;;1.57;1.20;;;8.60;98.20;;;;;;5036348;28;20468;-79
2023/03/14 12:37:19;;;;;;;1.60;1.20;;;8.50;98.20;;;;;;5037239;28;20493;-77
2023/03/14 12:39:54;;;;;;;1.60;1.20;;;8.50;98.20;;;;;;5035485;28;20477;-77
2023/03/14 12:42:38;;;;;;;1.60;1.20;;;8.50;98.20;;;;;;5042240;28;20489;-76
2023/03/14 12:45:23;;;;;;;1.60;1.20;;;8.40;98.20;;;;;;5048180;28;20636;-77
2023/03/14 12:47:56;;;;;;;1.60;1.20;;;8.40;98.20;;;;;;5041287;28;20482;-76
2023/03/14 12:50:34;;;;;;;1.57;1.10;;;8.50;98.20;;;;;;5047688;28;20463;-78
2023/03/14 12:53:28;;;;;;;1.60;1.20;;;8.50;98.20;;;;;;5028038;28;20500;-76
2023/03/14 12:56:01;;;;;;;1.60;1.20;;;8.50;98.20;;;;;;5036486;28;20541;-75
2023/03/14 12:58:35;;;;;;;1.60;1.10;;;8.60;98.20;;;;;;5065644;22;20471;-76
2023/03/14 13:01:04;;;;;;;1.60;1.20;;;8.70;98.20;;;;;;5054169;28;20476;-75